sensor_id;sensor_type;location;lat;lon;timestamp;P1;durP1;ratioP1;P2;durP2;ratioP2
22531;SDS011;11432;46.924;7.114;2022-08-19T00:00:00;13.73;;;8.98;;
22531;SDS011;11432;46.924;7.114;2022-08-19T00:02:25;13.00;;;8.40;;
22531;SDS011;11432;46.924;7.114;2022-08-19T00:04:51;12.77;;;8.75;;
22531;SDS011;11432;46.924;7.114;2022-08-19T00:07:20;10.80;;;8.68;;
22531;SDS011;11432;46.924;7.114;2022-08-19T00:09:45;11.13;;;8.23;;
22531;SDS011;11432;46.924;7.114;2022-08-19T00:12:11;13.07;;;9.02;;
22531;SDS011;11432;46.924;7.114;2022-08-19T00:14:38;11.13;;;7.85;;
22531;SDS011;11432;46.924;7.114;2022-08-19T00:17:06;12.25;;;8.85;;
22531;SDS011;11432;46.924;7.114;2022-08-19T00:19:33;12.38;;;8.20;;
22531;SDS011;11432;46.924;7.114;2022-08-19T00:22:01;11.85;;;8.77;;
22531;SDS011;11432;46.924;7.114;2022-08-19T00:24:27;12.02;;;8.18;;
22531;SDS011;11432;46.924;7.114;2022-08-19T00:26:54;12.57;;;7.90;;
22531;SDS011;11432;46.924;7.114;2022-08-19T00:29:22;10.35;;;8.25;;
22531;SDS011;11432;46.924;7.114;2022-08-19T00:31:49;12.48;;;8.40;;
22531;SDS011;11432;46.924;7.114;2022-08-19T00:34:19;10.23;;;7.72;;
22531;SDS011;11432;46.924;7.114;2022-08-19T00:36:46;12.65;;;8.65;;
22531;SDS011;11432;46.924;7.114;2022-08-19T00:39:13;9.75;;;7.85;;
22531;SDS011;11432;46.924;7.114;2022-08-19T00:41:40;11.38;;;7.55;;
22531;SDS011;11432;46.924;7.114;2022-08-19T00:44:12;11.07;;;8.05;;
22531;SDS011;11432;46.924;7.114;2022-08-19T00:46:42;11.35;;;8.07;;
22531;SDS011;11432;46.924;7.114;2022-08-19T00:49:30;13.32;;;8.35;;
22531;SDS011;11432;46.924;7.114;2022-08-19T00:52:05;10.73;;;8.18;;
22531;SDS011;11432;46.924;7.114;2022-08-19T00:54:34;10.85;;;8.63;;
22531;SDS011;11432;46.924;7.114;2022-08-19T00:57:02;12.98;;;7.93;;
22531;SDS011;11432;46.924;7.114;2022-08-19T00:59:31;10.82;;;7.70;;
22531;SDS011;11432;46.924;7.114;2022-08-19T01:02:00;11.05;;;7.60;;
22531;SDS011;11432;46.924;7.114;2022-08-19T01:04:26;11.90;;;8.35;;
22531;SDS011;11432;46.924;7.114;2022-08-19T01:06:52;11.07;;;8.45;;
22531;SDS011;11432;46.924;7.114;2022-08-19T01:09:17;13.07;;;8.32;;
22531;SDS011;11432;46.924;7.114;2022-08-19T01:11:43;13.98;;;8.60;;
22531;SDS011;11432;46.924;7.114;2022-08-19T01:14:10;13.18;;;8.57;;
22531;SDS011;11432;46.924;7.114;2022-08-19T01:16:37;15.27;;;9.38;;
22531;SDS011;11432;46.924;7.114;2022-08-19T01:19:39;11.98;;;8.77;;
22531;SDS011;11432;46.924;7.114;2022-08-19T01:24:45;13.35;;;9.18;;
22531;SDS011;11432;46.924;7.114;2022-08-19T01:27:10;11.65;;;8.40;;
22531;SDS011;11432;46.924;7.114;2022-08-19T01:29:37;12.32;;;9.00;;
22531;SDS011;11432;46.924;7.114;2022-08-19T01:32:05;12.83;;;9.57;;
22531;SDS011;11432;46.924;7.114;2022-08-19T01:34:32;13.18;;;9.20;;
22531;SDS011;11432;46.924;7.114;2022-08-19T01:36:59;13.30;;;8.60;;
22531;SDS011;11432;46.924;7.114;2022-08-19T01:39:27;12.25;;;8.70;;
22531;SDS011;11432;46.924;7.114;2022-08-19T01:41:53;12.70;;;9.00;;
22531;SDS011;11432;46.924;7.114;2022-08-19T01:44:21;12.82;;;8.45;;
22531;SDS011;11432;46.924;7.114;2022-08-19T01:46:49;12.27;;;8.40;;
22531;SDS011;11432;46.924;7.114;2022-08-19T01:49:19;12.15;;;8.70;;
22531;SDS011;11432;46.924;7.114;2022-08-19T01:51:48;12.45;;;8.50;;
22531;SDS011;11432;46.924;7.114;2022-08-19T01:54:15;13.02;;;8.15;;
22531;SDS011;11432;46.924;7.114;2022-08-19T01:56:42;11.40;;;8.25;;
22531;SDS011;11432;46.924;7.114;2022-08-19T01:59:10;11.77;;;9.15;;
22531;SDS011;11432;46.924;7.114;2022-08-19T02:01:40;14.30;;;9.32;;
22531;SDS011;11432;46.924;7.114;2022-08-19T02:04:05;13.40;;;8.77;;
22531;SDS011;11432;46.924;7.114;2022-08-19T02:06:31;12.18;;;8.70;;
22531;SDS011;11432;46.924;7.114;2022-08-19T02:08:57;12.50;;;8.38;;
22531;SDS011;11432;46.924;7.114;2022-08-19T02:11:28;13.95;;;8.50;;
22531;SDS011;11432;46.924;7.114;2022-08-19T02:13:56;10.52;;;7.43;;
22531;SDS011;11432;46.924;7.114;2022-08-19T02:16:23;14.52;;;8.18;;
22531;SDS011;11432;46.924;7.114;2022-08-19T02:18:49;13.32;;;8.65;;
22531;SDS011;11432;46.924;7.114;2022-08-19T02:21:16;9.60;;;7.53;;
22531;SDS011;11432;46.924;7.114;2022-08-19T02:23:43;12.70;;;9.10;;
22531;SDS011;11432;46.924;7.114;2022-08-19T02:26:09;12.32;;;7.40;;
22531;SDS011;11432;46.924;7.114;2022-08-19T02:28:35;9.70;;;7.38;;
22531;SDS011;11432;46.924;7.114;2022-08-19T02:31:02;10.88;;;7.20;;
22531;SDS011;11432;46.924;7.114;2022-08-19T02:33:28;11.50;;;7.20;;
22531;SDS011;11432;46.924;7.114;2022-08-19T02:35:54;11.45;;;6.90;;
22531;SDS011;11432;46.924;7.114;2022-08-19T02:38:19;8.00;;;6.05;;
22531;SDS011;11432;46.924;7.114;2022-08-19T02:40:53;7.55;;;5.18;;
22531;SDS011;11432;46.924;7.114;2022-08-19T02:43:24;7.63;;;5.28;;
22531;SDS011;11432;46.924;7.114;2022-08-19T02:45:51;7.03;;;5.25;;
22531;SDS011;11432;46.924;7.114;2022-08-19T02:48:18;9.52;;;5.00;;
22531;SDS011;11432;46.924;7.114;2022-08-19T02:50:45;5.85;;;4.38;;
22531;SDS011;11432;46.924;7.114;2022-08-19T02:53:11;8.68;;;4.75;;
22531;SDS011;11432;46.924;7.114;2022-08-19T02:55:44;8.65;;;4.70;;
22531;SDS011;11432;46.924;7.114;2022-08-19T02:58:11;6.25;;;4.50;;
22531;SDS011;11432;46.924;7.114;2022-08-19T03:00:41;5.63;;;3.83;;
22531;SDS011;11432;46.924;7.114;2022-08-19T03:03:12;4.72;;;3.35;;
22531;SDS011;11432;46.924;7.114;2022-08-19T03:05:38;4.90;;;3.38;;
22531;SDS011;11432;46.924;7.114;2022-08-19T03:08:04;3.95;;;2.80;;
22531;SDS011;11432;46.924;7.114;2022-08-19T03:10:30;4.13;;;2.58;;
22531;SDS011;11432;46.924;7.114;2022-08-19T03:12:57;4.00;;;2.72;;
22531;SDS011;11432;46.924;7.114;2022-08-19T03:15:23;4.00;;;2.42;;
22531;SDS011;11432;46.924;7.114;2022-08-19T03:17:48;4.10;;;2.70;;
22531;SDS011;11432;46.924;7.114;2022-08-19T03:20:14;5.32;;;2.28;;
22531;SDS011;11432;46.924;7.114;2022-08-19T03:22:40;4.72;;;2.20;;
22531;SDS011;11432;46.924;7.114;2022-08-19T03:25:05;3.33;;;2.17;;
22531;SDS011;11432;46.924;7.114;2022-08-19T03:27:31;3.10;;;2.00;;
22531;SDS011;11432;46.924;7.114;2022-08-19T03:29:57;3.97;;;2.08;;
22531;SDS011;11432;46.924;7.114;2022-08-19T03:32:23;2.78;;;1.90;;
22531;SDS011;11432;46.924;7.114;2022-08-19T03:34:49;5.55;;;1.98;;
22531;SDS011;11432;46.924;7.114;2022-08-19T03:37:16;4.55;;;1.88;;
22531;SDS011;11432;46.924;7.114;2022-08-19T03:39:41;1.98;;;1.58;;
22531;SDS011;11432;46.924;7.114;2022-08-19T03:42:08;4.40;;;1.58;;
22531;SDS011;11432;46.924;7.114;2022-08-19T03:44:34;2.67;;;1.30;;
22531;SDS011;11432;46.924;7.114;2022-08-19T03:47:02;2.78;;;1.35;;
22531;SDS011;11432;46.924;7.114;2022-08-19T03:49:29;1.35;;;1.10;;
22531;SDS011;11432;46.924;7.114;2022-08-19T03:51:57;3.40;;;1.48;;
22531;SDS011;11432;46.924;7.114;2022-08-19T03:54:25;3.63;;;1.63;;
22531;SDS011;11432;46.924;7.114;2022-08-19T03:56:52;2.35;;;1.40;;
22531;SDS011;11432;46.924;7.114;2022-08-19T03:59:21;2.80;;;1.30;;
22531;SDS011;11432;46.924;7.114;2022-08-19T04:01:56;4.63;;;1.15;;
22531;SDS011;11432;46.924;7.114;2022-08-19T04:04:24;2.03;;;1.30;;
22531;SDS011;11432;46.924;7.114;2022-08-19T04:06:50;1.85;;;1.20;;
22531;SDS011;11432;46.924;7.114;2022-08-19T04:09:16;2.85;;;1.20;;
22531;SDS011;11432;46.924;7.114;2022-08-19T04:11:44;3.45;;;1.42;;
22531;SDS011;11432;46.924;7.114;2022-08-19T04:16:40;1.98;;;1.23;;
22531;SDS011;11432;46.924;7.114;2022-08-19T04:19:05;2.30;;;1.48;;
22531;SDS011;11432;46.924;7.114;2022-08-19T04:21:31;3.85;;;2.33;;
22531;SDS011;11432;46.924;7.114;2022-08-19T04:23:58;4.40;;;2.80;;
22531;SDS011;11432;46.924;7.114;2022-08-19T04:26:24;4.47;;;3.28;;
22531;SDS011;11432;46.924;7.114;2022-08-19T04:28:57;5.82;;;3.50;;
22531;SDS011;11432;46.924;7.114;2022-08-19T04:31:25;4.20;;;3.25;;
22531;SDS011;11432;46.924;7.114;2022-08-19T04:33:55;5.47;;;3.60;;
22531;SDS011;11432;46.924;7.114;2022-08-19T04:36:24;3.85;;;3.22;;
22531;SDS011;11432;46.924;7.114;2022-08-19T04:39:04;5.90;;;3.30;;
22531;SDS011;11432;46.924;7.114;2022-08-19T04:41:32;6.22;;;3.50;;
22531;SDS011;11432;46.924;7.114;2022-08-19T04:44:16;4.88;;;3.58;;
22531;SDS011;11432;46.924;7.114;2022-08-19T04:46:43;4.78;;;3.15;;
22531;SDS011;11432;46.924;7.114;2022-08-19T04:49:09;5.00;;;2.70;;
22531;SDS011;11432;46.924;7.114;2022-08-19T04:51:36;4.65;;;3.00;;
22531;SDS011;11432;46.924;7.114;2022-08-19T04:54:04;4.87;;;3.30;;
22531;SDS011;11432;46.924;7.114;2022-08-19T04:56:30;4.38;;;2.58;;
22531;SDS011;11432;46.924;7.114;2022-08-19T04:58:56;3.50;;;2.70;;
22531;SDS011;11432;46.924;7.114;2022-08-19T05:01:25;3.38;;;2.47;;
22531;SDS011;11432;46.924;7.114;2022-08-19T05:03:57;4.95;;;2.58;;
22531;SDS011;11432;46.924;7.114;2022-08-19T05:08:53;4.15;;;2.90;;
22531;SDS011;11432;46.924;7.114;2022-08-19T05:11:24;4.32;;;3.03;;
22531;SDS011;11432;46.924;7.114;2022-08-19T05:13:53;4.55;;;3.28;;
22531;SDS011;11432;46.924;7.114;2022-08-19T05:16:21;3.80;;;2.72;;
22531;SDS011;11432;46.924;7.114;2022-08-19T05:18:48;3.72;;;2.92;;
22531;SDS011;11432;46.924;7.114;2022-08-19T05:21:33;4.15;;;3.00;;
22531;SDS011;11432;46.924;7.114;2022-08-19T05:24:19;5.63;;;3.10;;
22531;SDS011;11432;46.924;7.114;2022-08-19T05:26:47;3.75;;;2.97;;
22531;SDS011;11432;46.924;7.114;2022-08-19T05:29:15;3.88;;;2.70;;
22531;SDS011;11432;46.924;7.114;2022-08-19T05:31:43;4.47;;;2.57;;
22531;SDS011;11432;46.924;7.114;2022-08-19T05:34:09;3.30;;;2.40;;
22531;SDS011;11432;46.924;7.114;2022-08-19T05:36:38;5.18;;;2.63;;
22531;SDS011;11432;46.924;7.114;2022-08-19T05:39:06;6.28;;;2.97;;
22531;SDS011;11432;46.924;7.114;2022-08-19T05:41:33;4.30;;;2.42;;
22531;SDS011;11432;46.924;7.114;2022-08-19T05:44:04;5.63;;;2.55;;
22531;SDS011;11432;46.924;7.114;2022-08-19T05:46:34;4.18;;;2.97;;
22531;SDS011;11432;46.924;7.114;2022-08-19T05:49:04;4.18;;;2.75;;
22531;SDS011;11432;46.924;7.114;2022-08-19T05:51:31;7.60;;;2.83;;
22531;SDS011;11432;46.924;7.114;2022-08-19T05:53:59;4.50;;;2.78;;
22531;SDS011;11432;46.924;7.114;2022-08-19T05:56:25;4.45;;;2.60;;
22531;SDS011;11432;46.924;7.114;2022-08-19T05:58:51;5.22;;;2.85;;
22531;SDS011;11432;46.924;7.114;2022-08-19T06:02:48;4.40;;;2.45;;
22531;SDS011;11432;46.924;7.114;2022-08-19T06:05:15;4.72;;;2.67;;
22531;SDS011;11432;46.924;7.114;2022-08-19T06:07:41;5.95;;;3.40;;
22531;SDS011;11432;46.924;7.114;2022-08-19T06:10:08;6.65;;;3.20;;
22531;SDS011;11432;46.924;7.114;2022-08-19T06:12:35;31.65;;;11.25;;
22531;SDS011;11432;46.924;7.114;2022-08-19T06:15:02;9.45;;;4.53;;
22531;SDS011;11432;46.924;7.114;2022-08-19T06:17:33;13.27;;;6.47;;
22531;SDS011;11432;46.924;7.114;2022-08-19T06:20:00;7.88;;;4.10;;
22531;SDS011;11432;46.924;7.114;2022-08-19T06:22:26;7.20;;;4.07;;
22531;SDS011;11432;46.924;7.114;2022-08-19T06:24:52;6.78;;;3.03;;
22531;SDS011;11432;46.924;7.114;2022-08-19T06:27:19;4.72;;;3.25;;
22531;SDS011;11432;46.924;7.114;2022-08-19T06:29:45;5.18;;;3.22;;
22531;SDS011;11432;46.924;7.114;2022-08-19T06:32:11;4.28;;;2.80;;
22531;SDS011;11432;46.924;7.114;2022-08-19T06:34:39;4.03;;;2.72;;
22531;SDS011;11432;46.924;7.114;2022-08-19T06:37:06;3.85;;;3.13;;
22531;SDS011;11432;46.924;7.114;2022-08-19T06:39:34;4.85;;;3.05;;
22531;SDS011;11432;46.924;7.114;2022-08-19T06:42:03;5.45;;;3.05;;
22531;SDS011;11432;46.924;7.114;2022-08-19T06:44:33;5.10;;;3.35;;
22531;SDS011;11432;46.924;7.114;2022-08-19T06:47:05;5.22;;;3.00;;
22531;SDS011;11432;46.924;7.114;2022-08-19T06:49:32;4.15;;;2.60;;
22531;SDS011;11432;46.924;7.114;2022-08-19T06:51:59;4.30;;;2.97;;
22531;SDS011;11432;46.924;7.114;2022-08-19T06:54:25;6.45;;;3.85;;
22531;SDS011;11432;46.924;7.114;2022-08-19T06:56:51;5.03;;;2.83;;
22531;SDS011;11432;46.924;7.114;2022-08-19T06:59:18;8.05;;;3.30;;
22531;SDS011;11432;46.924;7.114;2022-08-19T07:01:51;5.10;;;2.70;;
22531;SDS011;11432;46.924;7.114;2022-08-19T07:04:24;4.85;;;3.00;;
22531;SDS011;11432;46.924;7.114;2022-08-19T07:06:56;4.05;;;2.70;;
22531;SDS011;11432;46.924;7.114;2022-08-19T07:09:23;6.05;;;3.13;;
22531;SDS011;11432;46.924;7.114;2022-08-19T07:11:50;3.45;;;2.63;;
22531;SDS011;11432;46.924;7.114;2022-08-19T07:14:18;4.20;;;2.85;;
22531;SDS011;11432;46.924;7.114;2022-08-19T07:16:46;4.78;;;2.60;;
22531;SDS011;11432;46.924;7.114;2022-08-19T07:19:14;4.53;;;2.88;;
22531;SDS011;11432;46.924;7.114;2022-08-19T07:21:40;4.80;;;2.72;;
22531;SDS011;11432;46.924;7.114;2022-08-19T07:24:06;5.85;;;3.17;;
22531;SDS011;11432;46.924;7.114;2022-08-19T07:26:33;5.60;;;2.80;;
22531;SDS011;11432;46.924;7.114;2022-08-19T07:29:04;4.10;;;2.70;;
22531;SDS011;11432;46.924;7.114;2022-08-19T07:31:30;3.40;;;2.50;;
22531;SDS011;11432;46.924;7.114;2022-08-19T07:33:59;4.90;;;2.67;;
22531;SDS011;11432;46.924;7.114;2022-08-19T07:36:26;3.33;;;2.83;;
22531;SDS011;11432;46.924;7.114;2022-08-19T07:38:57;3.92;;;2.72;;
22531;SDS011;11432;46.924;7.114;2022-08-19T07:41:25;3.70;;;2.80;;
22531;SDS011;11432;46.924;7.114;2022-08-19T07:43:53;3.57;;;2.57;;
22531;SDS011;11432;46.924;7.114;2022-08-19T07:46:19;3.90;;;2.38;;
22531;SDS011;11432;46.924;7.114;2022-08-19T07:48:46;3.83;;;2.47;;
22531;SDS011;11432;46.924;7.114;2022-08-19T07:51:15;5.00;;;2.53;;
22531;SDS011;11432;46.924;7.114;2022-08-19T07:53:43;3.63;;;2.78;;
22531;SDS011;11432;46.924;7.114;2022-08-19T07:56:10;4.25;;;2.60;;
22531;SDS011;11432;46.924;7.114;2022-08-19T07:58:39;4.65;;;2.92;;
22531;SDS011;11432;46.924;7.114;2022-08-19T08:01:07;4.17;;;2.00;;
22531;SDS011;11432;46.924;7.114;2022-08-19T08:03:35;3.03;;;2.45;;
22531;SDS011;11432;46.924;7.114;2022-08-19T08:06:31;3.70;;;2.33;;
22531;SDS011;11432;46.924;7.114;2022-08-19T08:09:16;4.50;;;2.65;;
22531;SDS011;11432;46.924;7.114;2022-08-19T08:14:23;4.07;;;2.20;;
22531;SDS011;11432;46.924;7.114;2022-08-19T08:16:53;3.55;;;2.65;;
22531;SDS011;11432;46.924;7.114;2022-08-19T08:19:20;3.42;;;2.35;;
22531;SDS011;11432;46.924;7.114;2022-08-19T08:21:48;4.00;;;2.72;;
22531;SDS011;11432;46.924;7.114;2022-08-19T08:24:16;4.53;;;2.78;;
22531;SDS011;11432;46.924;7.114;2022-08-19T08:26:42;3.75;;;2.70;;
22531;SDS011;11432;46.924;7.114;2022-08-19T08:29:09;4.35;;;3.03;;
22531;SDS011;11432;46.924;7.114;2022-08-19T08:31:37;4.45;;;2.67;;
22531;SDS011;11432;46.924;7.114;2022-08-19T08:34:04;4.30;;;2.90;;
22531;SDS011;11432;46.924;7.114;2022-08-19T08:36:30;4.30;;;3.22;;
22531;SDS011;11432;46.924;7.114;2022-08-19T08:38:58;4.53;;;3.38;;
22531;SDS011;11432;46.924;7.114;2022-08-19T08:43:53;4.60;;;2.77;;
22531;SDS011;11432;46.924;7.114;2022-08-19T08:49:10;6.28;;;3.33;;
22531;SDS011;11432;46.924;7.114;2022-08-19T08:54:43;4.82;;;3.17;;
22531;SDS011;11432;46.924;7.114;2022-08-19T08:57:12;3.90;;;3.10;;
22531;SDS011;11432;46.924;7.114;2022-08-19T08:59:48;5.80;;;3.35;;
22531;SDS011;11432;46.924;7.114;2022-08-19T09:04:43;3.42;;;2.72;;
22531;SDS011;11432;46.924;7.114;2022-08-19T09:15:42;4.90;;;3.35;;
22531;SDS011;11432;46.924;7.114;2022-08-19T09:18:11;3.53;;;3.03;;
22531;SDS011;11432;46.924;7.114;2022-08-19T09:20:37;4.38;;;3.28;;
22531;SDS011;11432;46.924;7.114;2022-08-19T09:23:02;4.35;;;3.33;;
22531;SDS011;11432;46.924;7.114;2022-08-19T09:25:29;3.78;;;2.72;;
22531;SDS011;11432;46.924;7.114;2022-08-19T09:27:57;4.13;;;3.38;;
22531;SDS011;11432;46.924;7.114;2022-08-19T09:30:27;4.63;;;3.50;;
22531;SDS011;11432;46.924;7.114;2022-08-19T09:32:55;4.68;;;3.28;;
22531;SDS011;11432;46.924;7.114;2022-08-19T09:35:22;4.00;;;3.13;;
22531;SDS011;11432;46.924;7.114;2022-08-19T09:37:49;4.15;;;3.10;;
22531;SDS011;11432;46.924;7.114;2022-08-19T09:40:15;5.28;;;3.15;;
22531;SDS011;11432;46.924;7.114;2022-08-19T09:42:42;3.72;;;2.78;;
22531;SDS011;11432;46.924;7.114;2022-08-19T09:45:09;7.70;;;3.90;;
22531;SDS011;11432;46.924;7.114;2022-08-19T09:47:35;4.88;;;3.20;;
22531;SDS011;11432;46.924;7.114;2022-08-19T09:50:06;4.32;;;3.30;;
22531;SDS011;11432;46.924;7.114;2022-08-19T09:52:34;4.25;;;3.42;;
22531;SDS011;11432;46.924;7.114;2022-08-19T09:55:06;5.37;;;3.37;;
22531;SDS011;11432;46.924;7.114;2022-08-19T09:57:33;4.75;;;3.00;;
22531;SDS011;11432;46.924;7.114;2022-08-19T09:59:59;5.72;;;3.72;;
22531;SDS011;11432;46.924;7.114;2022-08-19T10:02:25;5.10;;;3.75;;
22531;SDS011;11432;46.924;7.114;2022-08-19T10:04:51;5.22;;;4.05;;
22531;SDS011;11432;46.924;7.114;2022-08-19T10:07:36;6.28;;;4.22;;
22531;SDS011;11432;46.924;7.114;2022-08-19T10:10:03;6.18;;;4.20;;
22531;SDS011;11432;46.924;7.114;2022-08-19T10:12:31;4.32;;;3.25;;
22531;SDS011;11432;46.924;7.114;2022-08-19T10:14:58;5.13;;;3.55;;
22531;SDS011;11432;46.924;7.114;2022-08-19T10:17:24;5.97;;;4.20;;
22531;SDS011;11432;46.924;7.114;2022-08-19T10:19:50;5.20;;;3.78;;
22531;SDS011;11432;46.924;7.114;2022-08-19T10:22:17;6.22;;;4.53;;
22531;SDS011;11432;46.924;7.114;2022-08-19T10:24:43;5.63;;;4.03;;
22531;SDS011;11432;46.924;7.114;2022-08-19T10:27:10;6.15;;;3.95;;
22531;SDS011;11432;46.924;7.114;2022-08-19T10:29:38;5.78;;;4.30;;
22531;SDS011;11432;46.924;7.114;2022-08-19T10:32:04;6.07;;;4.63;;
22531;SDS011;11432;46.924;7.114;2022-08-19T10:37:00;6.60;;;3.80;;
22531;SDS011;11432;46.924;7.114;2022-08-19T10:39:26;5.45;;;4.13;;
22531;SDS011;11432;46.924;7.114;2022-08-19T10:41:54;5.10;;;3.85;;
22531;SDS011;11432;46.924;7.114;2022-08-19T10:44:21;7.85;;;4.28;;
22531;SDS011;11432;46.924;7.114;2022-08-19T10:46:48;6.82;;;4.80;;
22531;SDS011;11432;46.924;7.114;2022-08-19T10:49:15;5.75;;;4.25;;
22531;SDS011;11432;46.924;7.114;2022-08-19T10:51:41;5.78;;;4.03;;
22531;SDS011;11432;46.924;7.114;2022-08-19T10:54:26;7.45;;;4.40;;
22531;SDS011;11432;46.924;7.114;2022-08-19T10:57:12;5.20;;;4.13;;
22531;SDS011;11432;46.924;7.114;2022-08-19T10:59:38;6.32;;;4.47;;
22531;SDS011;11432;46.924;7.114;2022-08-19T11:02:06;6.80;;;3.80;;
22531;SDS011;11432;46.924;7.114;2022-08-19T11:04:35;6.80;;;5.05;;
22531;SDS011;11432;46.924;7.114;2022-08-19T11:07:04;6.70;;;4.30;;
22531;SDS011;11432;46.924;7.114;2022-08-19T11:09:31;5.38;;;4.22;;
22531;SDS011;11432;46.924;7.114;2022-08-19T11:12:03;5.85;;;4.53;;
22531;SDS011;11432;46.924;7.114;2022-08-19T11:14:29;8.43;;;4.78;;
22531;SDS011;11432;46.924;7.114;2022-08-19T11:16:57;8.25;;;4.93;;
22531;SDS011;11432;46.924;7.114;2022-08-19T11:19:23;5.93;;;4.25;;
22531;SDS011;11432;46.924;7.114;2022-08-19T11:21:49;5.95;;;4.47;;
22531;SDS011;11432;46.924;7.114;2022-08-19T11:24:20;5.88;;;4.05;;
22531;SDS011;11432;46.924;7.114;2022-08-19T11:26:48;7.45;;;4.90;;
22531;SDS011;11432;46.924;7.114;2022-08-19T11:29:16;7.22;;;4.20;;
22531;SDS011;11432;46.924;7.114;2022-08-19T11:31:44;6.68;;;4.82;;
22531;SDS011;11432;46.924;7.114;2022-08-19T11:34:12;6.82;;;5.28;;
22531;SDS011;11432;46.924;7.114;2022-08-19T11:36:42;6.32;;;4.63;;
22531;SDS011;11432;46.924;7.114;2022-08-19T11:39:10;8.17;;;5.27;;
22531;SDS011;11432;46.924;7.114;2022-08-19T11:41:38;7.07;;;4.85;;
22531;SDS011;11432;46.924;7.114;2022-08-19T11:44:04;7.78;;;5.00;;
22531;SDS011;11432;46.924;7.114;2022-08-19T11:46:32;9.07;;;5.53;;
22531;SDS011;11432;46.924;7.114;2022-08-19T11:48:59;8.32;;;5.32;;
22531;SDS011;11432;46.924;7.114;2022-08-19T11:51:26;7.30;;;4.60;;
22531;SDS011;11432;46.924;7.114;2022-08-19T11:53:53;5.30;;;3.67;;
22531;SDS011;11432;46.924;7.114;2022-08-19T11:56:21;9.20;;;5.57;;
22531;SDS011;11432;46.924;7.114;2022-08-19T11:58:47;8.02;;;6.07;;
22531;SDS011;11432;46.924;7.114;2022-08-19T12:01:15;9.25;;;6.15;;
22531;SDS011;11432;46.924;7.114;2022-08-19T12:03:42;8.73;;;5.95;;
22531;SDS011;11432;46.924;7.114;2022-08-19T12:06:14;8.02;;;5.68;;
22531;SDS011;11432;46.924;7.114;2022-08-19T12:08:43;7.72;;;5.78;;
22531;SDS011;11432;46.924;7.114;2022-08-19T12:11:10;8.88;;;6.63;;
22531;SDS011;11432;46.924;7.114;2022-08-19T12:13:37;7.53;;;5.90;;
22531;SDS011;11432;46.924;7.114;2022-08-19T12:16:07;10.82;;;5.50;;
22531;SDS011;11432;46.924;7.114;2022-08-19T12:18:38;8.27;;;5.90;;
22531;SDS011;11432;46.924;7.114;2022-08-19T12:21:06;8.98;;;6.28;;
22531;SDS011;11432;46.924;7.114;2022-08-19T12:23:32;7.30;;;5.72;;
22531;SDS011;11432;46.924;7.114;2022-08-19T12:25:57;10.48;;;6.32;;
22531;SDS011;11432;46.924;7.114;2022-08-19T12:28:23;8.70;;;6.28;;
22531;SDS011;11432;46.924;7.114;2022-08-19T12:30:50;9.85;;;7.38;;
22531;SDS011;11432;46.924;7.114;2022-08-19T12:33:17;9.45;;;7.32;;
22531;SDS011;11432;46.924;7.114;2022-08-19T12:35:44;10.85;;;8.25;;
22531;SDS011;11432;46.924;7.114;2022-08-19T12:38:12;11.55;;;7.78;;
22531;SDS011;11432;46.924;7.114;2022-08-19T12:40:38;10.43;;;6.93;;
22531;SDS011;11432;46.924;7.114;2022-08-19T12:43:07;10.18;;;7.15;;
22531;SDS011;11432;46.924;7.114;2022-08-19T12:45:33;10.70;;;8.07;;
22531;SDS011;11432;46.924;7.114;2022-08-19T12:47:59;10.52;;;7.75;;
22531;SDS011;11432;46.924;7.114;2022-08-19T12:50:25;10.43;;;7.10;;
22531;SDS011;11432;46.924;7.114;2022-08-19T12:52:50;10.82;;;8.05;;
22531;SDS011;11432;46.924;7.114;2022-08-19T12:55:16;13.27;;;8.77;;
22531;SDS011;11432;46.924;7.114;2022-08-19T12:57:44;15.57;;;9.60;;
22531;SDS011;11432;46.924;7.114;2022-08-19T13:00:14;13.50;;;10.45;;
22531;SDS011;11432;46.924;7.114;2022-08-19T13:02:44;13.27;;;9.00;;
22531;SDS011;11432;46.924;7.114;2022-08-19T13:05:12;11.75;;;8.48;;
22531;SDS011;11432;46.924;7.114;2022-08-19T13:07:40;13.15;;;10.23;;
22531;SDS011;11432;46.924;7.114;2022-08-19T13:10:09;9.75;;;7.05;;
22531;SDS011;11432;46.924;7.114;2022-08-19T13:12:40;12.13;;;8.43;;
22531;SDS011;11432;46.924;7.114;2022-08-19T13:15:06;11.50;;;9.00;;
22531;SDS011;11432;46.924;7.114;2022-08-19T13:17:33;13.65;;;10.23;;
22531;SDS011;11432;46.924;7.114;2022-08-19T13:19:59;14.13;;;8.90;;
22531;SDS011;11432;46.924;7.114;2022-08-19T13:22:25;14.00;;;9.65;;
22531;SDS011;11432;46.924;7.114;2022-08-19T13:24:51;10.35;;;8.65;;
22531;SDS011;11432;46.924;7.114;2022-08-19T13:27:17;13.35;;;9.05;;
22531;SDS011;11432;46.924;7.114;2022-08-19T13:29:43;14.25;;;10.57;;
22531;SDS011;11432;46.924;7.114;2022-08-19T13:32:28;15.18;;;9.73;;
22531;SDS011;11432;46.924;7.114;2022-08-19T13:35:13;12.60;;;8.70;;
22531;SDS011;11432;46.924;7.114;2022-08-19T13:37:39;10.63;;;8.13;;
22531;SDS011;11432;46.924;7.114;2022-08-19T13:40:13;10.65;;;8.40;;
22531;SDS011;11432;46.924;7.114;2022-08-19T13:42:43;12.35;;;9.85;;
22531;SDS011;11432;46.924;7.114;2022-08-19T13:45:11;11.15;;;9.02;;
22531;SDS011;11432;46.924;7.114;2022-08-19T13:47:38;9.70;;;7.47;;
22531;SDS011;11432;46.924;7.114;2022-08-19T13:50:13;11.02;;;7.25;;
22531;SDS011;11432;46.924;7.114;2022-08-19T13:52:42;9.77;;;7.88;;
22531;SDS011;11432;46.924;7.114;2022-08-19T13:55:08;12.70;;;9.73;;
22531;SDS011;11432;46.924;7.114;2022-08-19T13:57:36;13.73;;;9.65;;
22531;SDS011;11432;46.924;7.114;2022-08-19T14:00:04;11.60;;;8.82;;
22531;SDS011;11432;46.924;7.114;2022-08-19T14:02:38;12.85;;;7.75;;
22531;SDS011;11432;46.924;7.114;2022-08-19T14:05:05;12.00;;;8.38;;
22531;SDS011;11432;46.924;7.114;2022-08-19T14:07:34;11.23;;;7.90;;
22531;SDS011;11432;46.924;7.114;2022-08-19T14:10:00;10.55;;;7.95;;
22531;SDS011;11432;46.924;7.114;2022-08-19T14:12:25;11.10;;;8.10;;
22531;SDS011;11432;46.924;7.114;2022-08-19T14:14:51;12.20;;;8.13;;
22531;SDS011;11432;46.924;7.114;2022-08-19T14:17:16;12.65;;;8.65;;
22531;SDS011;11432;46.924;7.114;2022-08-19T14:19:42;11.80;;;8.75;;
22531;SDS011;11432;46.924;7.114;2022-08-19T14:22:08;11.13;;;8.70;;
22531;SDS011;11432;46.924;7.114;2022-08-19T14:24:34;9.88;;;8.60;;
22531;SDS011;11432;46.924;7.114;2022-08-19T14:27:02;12.32;;;7.78;;
22531;SDS011;11432;46.924;7.114;2022-08-19T14:29:28;11.25;;;7.68;;
22531;SDS011;11432;46.924;7.114;2022-08-19T14:31:54;12.80;;;9.15;;
22531;SDS011;11432;46.924;7.114;2022-08-19T14:34:24;11.43;;;8.32;;
22531;SDS011;11432;46.924;7.114;2022-08-19T14:36:50;10.65;;;8.68;;
22531;SDS011;11432;46.924;7.114;2022-08-19T14:39:15;13.13;;;10.07;;
22531;SDS011;11432;46.924;7.114;2022-08-19T14:41:41;13.40;;;9.35;;
22531;SDS011;11432;46.924;7.114;2022-08-19T14:44:07;10.20;;;8.27;;
22531;SDS011;11432;46.924;7.114;2022-08-19T14:46:35;13.32;;;9.15;;
22531;SDS011;11432;46.924;7.114;2022-08-19T14:49:00;10.32;;;8.20;;
22531;SDS011;11432;46.924;7.114;2022-08-19T14:51:26;13.23;;;9.25;;
22531;SDS011;11432;46.924;7.114;2022-08-19T14:53:52;10.75;;;8.63;;
22531;SDS011;11432;46.924;7.114;2022-08-19T14:56:21;9.70;;;8.15;;
22531;SDS011;11432;46.924;7.114;2022-08-19T14:58:48;10.38;;;8.10;;
22531;SDS011;11432;46.924;7.114;2022-08-19T15:01:17;9.65;;;8.18;;
22531;SDS011;11432;46.924;7.114;2022-08-19T15:03:45;12.63;;;9.65;;
22531;SDS011;11432;46.924;7.114;2022-08-19T15:06:11;10.43;;;8.52;;
22531;SDS011;11432;46.924;7.114;2022-08-19T15:08:37;11.15;;;8.73;;
22531;SDS011;11432;46.924;7.114;2022-08-19T15:11:08;11.88;;;8.30;;
22531;SDS011;11432;46.924;7.114;2022-08-19T15:13:35;10.98;;;8.48;;
22531;SDS011;11432;46.924;7.114;2022-08-19T15:16:01;10.68;;;7.85;;
22531;SDS011;11432;46.924;7.114;2022-08-19T15:18:27;9.65;;;8.00;;
22531;SDS011;11432;46.924;7.114;2022-08-19T15:20:53;8.73;;;6.50;;